Time;durP1;ratioP1;P1;durP2;ratioP2;P2;SDS_P1;SDS_P2;PMS_P1;PMS_P2;Temp;Humidity;BMP_temperature;BMP_pressure;BME280_temperature;BME280_humidity;BME280_pressure;Samples;Min_cycle;Max_cycle;Signal;HPM_P1;HPM_P2
2021/08/15 00:00:01;;;;;;;10.95;7.30;;;21.90;74.10;;;;;;5082245;28;20032;-60
2021/08/15 00:02:28;;;;;;;10.18;6.75;;;21.90;74.10;;;;;;5083000;28;20028;-59
2021/08/15 00:04:54;;;;;;;13.23;6.82;;;21.90;73.90;;;;;;5081179;28;20040;-59
2021/08/15 00:07:20;;;;;;;10.57;6.95;;;21.90;73.80;;;;;;5084293;28;20373;-59
2021/08/15 00:09:45;;;;;;;10.70;6.97;;;22.00;73.20;;;;;;5067457;28;20428;-58
2021/08/15 00:12:11;;;;;;;12.15;7.30;;;22.00;73.10;;;;;;5085590;28;20480;-57
2021/08/15 00:14:37;;;;;;;10.32;6.32;;;21.90;72.70;;;;;;5081022;28;20028;-57
2021/08/15 00:17:03;;;;;;;8.02;6.97;;;21.90;72.50;;;;;;5082079;28;20570;-58
2021/08/15 00:19:28;;;;;;;13.77;7.10;;;21.80;72.90;;;;;;5084129;28;20060;-59
2021/08/15 00:21:54;;;;;;;10.13;6.55;;;21.70;73.10;;;;;;5083384;28;20043;-59
2021/08/15 00:24:20;;;;;;;8.27;6.28;;;21.70;73.00;;;;;;5064318;28;20035;-58
2021/08/15 00:26:46;;;;;;;9.07;6.57;;;21.70;72.70;;;;;;5083724;28;20027;-59
2021/08/15 00:29:11;;;;;;;9.27;6.57;;;21.70;72.80;;;;;;5082292;28;20031;-59
2021/08/15 00:31:37;;;;;;;10.38;6.40;;;21.90;73.40;;;;;;5084076;28;20074;-59
2021/08/15 00:34:03;;;;;;;10.30;6.75;;;22.00;72.10;;;;;;5081565;28;20029;-58
2021/08/15 00:36:28;;;;;;;7.95;6.32;;;22.00;72.40;;;;;;5057294;28;20047;-59
2021/08/15 00:38:54;;;;;;;9.65;6.43;;;22.00;73.40;;;;;;5073426;28;20032;-60
2021/08/15 00:41:20;;;;;;;9.43;5.72;;;22.00;73.10;;;;;;5073288;28;20396;-60
2021/08/15 00:43:46;;;;;;;11.40;6.38;;;22.10;71.90;;;;;;5072595;28;20112;-57
2021/08/15 00:46:13;;;;;;;9.02;6.47;;;21.90;71.30;;;;;;5072410;28;20148;-58
2021/08/15 00:48:39;;;;;;;9.50;6.22;;;21.70;72.30;;;;;;5074386;28;20091;-56
2021/08/15 00:51:05;;;;;;;11.18;6.22;;;21.70;72.60;;;;;;5093118;28;20381;-59
2021/08/15 00:53:32;;;;;;;8.93;6.35;;;21.70;73.30;;;;;;5093485;28;20027;-59
2021/08/15 00:55:58;;;;;;;13.35;6.63;;;21.70;73.10;;;;;;5074707;28;20035;-60
2021/08/15 00:58:25;;;;;;;10.48;6.03;;;21.70;73.80;;;;;;5092503;28;20039;-60
2021/08/15 01:00:50;;;;;;;12.52;6.40;;;21.70;73.90;;;;;;5093088;28;20032;-59
2021/08/15 01:03:18;;;;;;;7.60;6.40;;;21.80;74.10;;;;;;5092164;28;20585;-58
2021/08/15 01:05:43;;;;;;;9.45;6.35;;;21.80;74.30;;;;;;5092844;28;20543;-59
2021/08/15 01:08:09;;;;;;;9.38;6.72;;;21.80;74.20;;;;;;5093072;28;20122;-59
2021/08/15 01:10:35;;;;;;;10.52;6.70;;;21.90;74.20;;;;;;5092977;28;20498;-59
2021/08/15 01:13:01;;;;;;;10.48;6.40;;;21.80;73.90;;;;;;5093473;28;20039;-58
2021/08/15 01:15:27;;;;;;;7.95;6.13;;;21.90;74.20;;;;;;5075137;28;20028;-56
2021/08/15 01:17:53;;;;;;;11.30;6.38;;;21.80;74.40;;;;;;5058033;28;20035;-60
2021/08/15 01:20:19;;;;;;;8.70;6.63;;;21.80;74.60;;;;;;5093659;28;20491;-58
2021/08/15 01:22:45;;;;;;;9.75;6.40;;;21.90;75.80;;;;;;5095041;28;20024;-60
2021/08/15 01:25:15;;;;;;;7.68;5.97;;;21.80;75.90;;;;;;5094018;28;20118;-57
2021/08/15 01:27:44;;;;;;;11.35;6.10;;;21.80;76.20;;;;;;5092132;28;20110;-57
2021/08/15 01:30:14;;;;;;;9.27;6.07;;;21.80;75.90;;;;;;5092224;28;20032;-59
2021/08/15 01:32:44;;;;;;;10.65;6.68;;;21.80;75.50;;;;;;5092879;28;20028;-58
2021/08/15 01:35:10;;;;;;;7.60;5.90;;;21.70;76.10;;;;;;5092479;28;20544;-57
2021/08/15 01:37:36;;;;;;;8.30;5.80;;;21.60;75.60;;;;;;5092044;28;20074;-58
2021/08/15 01:40:03;;;;;;;10.60;6.13;;;21.60;75.80;;;;;;5092358;28;20028;-57
2021/08/15 01:42:30;;;;;;;11.55;6.22;;;21.50;75.30;;;;;;5091740;28;20036;-58
2021/08/15 01:44:58;;;;;;;9.00;6.22;;;21.50;75.50;;;;;;5092207;28;20040;-60
2021/08/15 01:47:25;;;;;;;9.90;6.53;;;21.50;75.90;;;;;;5085972;28;20036;-60
2021/08/15 01:49:51;;;;;;;12.55;6.13;;;21.40;75.20;;;;;;5066438;28;20043;-59
2021/08/15 01:52:16;;;;;;;8.23;5.72;;;21.40;74.40;;;;;;5078052;28;20388;-59
2021/08/15 01:54:42;;;;;;;10.73;5.85;;;21.40;73.80;;;;;;5083980;28;20044;-60
2021/08/15 01:57:08;;;;;;;8.38;5.60;;;21.30;74.70;;;;;;5058895;28;20032;-58
2021/08/15 01:59:34;;;;;;;9.93;5.65;;;21.30;74.30;;;;;;5084890;28;20508;-57
2021/08/15 02:01:59;;;;;;;9.00;5.90;;;21.10;75.00;;;;;;5072039;28;20154;-58
2021/08/15 02:04:25;;;;;;;8.48;5.75;;;21.00;75.50;;;;;;5070889;28;20123;-59
2021/08/15 02:06:51;;;;;;;9.48;6.45;;;21.00;74.90;;;;;;5071226;28;20029;-60
2021/08/15 02:09:16;;;;;;;9.38;5.72;;;20.90;74.70;;;;;;5071461;28;20062;-60
2021/08/15 02:11:42;;;;;;;11.73;5.68;;;20.80;74.30;;;;;;5071530;28;20031;-59
2021/08/15 02:14:07;;;;;;;15.20;6.30;;;20.80;74.80;;;;;;5071648;28;20364;-59
2021/08/15 02:16:33;;;;;;;7.03;5.30;;;20.80;75.60;;;;;;5071213;28;20036;-59
2021/08/15 02:18:58;;;;;;;10.77;5.50;;;20.80;76.50;;;;;;5073974;28;20422;-58
2021/08/15 02:21:24;;;;;;;9.88;6.13;;;20.80;75.50;;;;;;5073496;28;20035;-60
2021/08/15 02:23:50;;;;;;;9.48;5.68;;;20.80;75.40;;;;;;5091101;28;20040;-60
2021/08/15 02:26:15;;;;;;;7.93;5.72;;;20.80;76.50;;;;;;5090653;28;20396;-57
2021/08/15 02:28:41;;;;;;;10.75;7.25;;;20.90;74.60;;;;;;5091893;28;20715;-59
2021/08/15 02:31:06;;;;;;;11.40;6.53;;;20.80;74.80;;;;;;5092125;28;20029;-59
2021/08/15 02:33:32;;;;;;;11.85;6.95;;;20.70;75.20;;;;;;5092087;28;20036;-57
2021/08/15 02:35:57;;;;;;;12.07;6.30;;;20.70;76.20;;;;;;5091938;28;20044;-59
2021/08/15 02:38:24;;;;;;;9.65;6.30;;;20.70;76.10;;;;;;5091570;28;20074;-59
2021/08/15 02:40:50;;;;;;;10.88;6.25;;;20.70;76.10;;;;;;5091688;28;20531;-58
2021/08/15 02:43:20;;;;;;;11.30;6.63;;;20.70;76.30;;;;;;5092045;28;20036;-58
2021/08/15 02:45:46;;;;;;;8.45;5.57;;;20.60;75.30;;;;;;5091288;28;20032;-58
2021/08/15 02:48:11;;;;;;;11.88;6.10;;;20.60;76.10;;;;;;5073996;28;20402;-57
2021/08/15 02:50:37;;;;;;;9.88;6.00;;;20.50;77.50;;;;;;5091547;28;20036;-59
2021/08/15 02:53:02;;;;;;;13.57;7.03;;;20.30;78.40;;;;;;5091662;28;20028;-56
2021/08/15 02:55:28;;;;;;;9.45;6.50;;;20.20;76.70;;;;;;5094926;28;20032;-57
2021/08/15 02:57:54;;;;;;;10.52;5.88;;;20.10;77.80;;;;;;5095099;28;20097;-58
2021/08/15 03:00:19;;;;;;;9.27;6.68;;;20.10;78.80;;;;;;5094993;28;20399;-58
2021/08/15 03:02:45;;;;;;;12.55;5.88;;;20.10;79.20;;;;;;5095178;28;20039;-59
2021/08/15 03:05:11;;;;;;;7.53;5.40;;;20.10;79.90;;;;;;5094247;28;20066;-58
2021/08/15 03:07:37;;;;;;;10.00;6.15;;;20.00;79.70;;;;;;5077066;28;20032;-59
2021/08/15 03:10:04;;;;;;;12.85;6.53;;;20.00;79.40;;;;;;5077316;28;20402;-59
2021/08/15 03:12:30;;;;;;;10.55;6.32;;;20.10;79.30;;;;;;5095187;28;20017;-57
2021/08/15 03:14:55;;;;;;;9.43;5.70;;;20.10;79.30;;;;;;5095075;28;20051;-59
2021/08/15 03:17:21;;;;;;;11.73;6.68;;;20.20;79.30;;;;;;5094647;28;20047;-58
2021/08/15 03:19:46;;;;;;;10.60;6.10;;;20.20;79.00;;;;;;5094826;28;20032;-59
2021/08/15 03:22:12;;;;;;;9.80;5.57;;;20.20;79.40;;;;;;5095181;28;20028;-57
2021/08/15 03:24:38;;;;;;;9.93;5.90;;;20.10;79.20;;;;;;5095099;28;20115;-57
2021/08/15 03:27:04;;;;;;;9.43;5.90;;;20.10;79.60;;;;;;5094346;28;20040;-58
2021/08/15 03:29:29;;;;;;;10.45;6.35;;;20.10;80.10;;;;;;5094886;28;20034;-59
2021/08/15 03:31:55;;;;;;;10.80;6.40;;;20.00;79.60;;;;;;5094255;28;20103;-58
2021/08/15 03:34:21;;;;;;;8.93;6.20;;;20.00;79.30;;;;;;5094748;28;20062;-57
2021/08/15 03:36:48;;;;;;;8.52;6.25;;;19.90;81.00;;;;;;5094268;28;20101;-59
2021/08/15 03:39:14;;;;;;;50.20;35.15;;;19.90;80.70;;;;;;5095007;28;20476;-59
2021/08/15 03:41:40;;;;;;;24.10;16.63;;;19.90;80.80;;;;;;5094625;28;20428;-58
2021/08/15 03:44:06;;;;;;;13.52;9.57;;;20.00;81.30;;;;;;5094768;28;20046;-57
2021/08/15 03:46:31;;;;;;;10.32;7.45;;;20.00;81.40;;;;;;5093885;28;20054;-57
2021/08/15 03:48:57;;;;;;;12.07;6.63;;;20.00;81.60;;;;;;5094564;28;20070;-58
2021/08/15 03:51:22;;;;;;;10.23;6.78;;;20.00;81.70;;;;;;5094320;28;20059;-59
2021/08/15 03:53:48;;;;;;;12.25;7.13;;;20.00;82.00;;;;;;5094256;28;20127;-58
2021/08/15 03:56:14;;;;;;;10.73;6.88;;;20.00;82.20;;;;;;5094050;28;20039;-57
2021/08/15 03:58:40;;;;;;;8.25;5.72;;;20.00;82.70;;;;;;5094776;28;20052;-59
2021/08/15 04:01:05;;;;;;;11.55;6.18;;;20.00;83.20;;;;;;5094718;28;20399;-59
2021/08/15 04:03:31;;;;;;;10.40;5.65;;;19.90;83.50;;;;;;5093744;28;20039;-58
2021/08/15 04:05:59;;;;;;;10.02;5.70;;;19.90;83.60;;;;;;5092645;28;20448;-58
2021/08/15 04:08:26;;;;;;;8.07;5.82;;;19.90;83.90;;;;;;5094011;28;20036;-58
2021/08/15 04:10:52;;;;;;;9.27;7.00;;;19.90;83.10;;;;;;5094085;28;20085;-58
2021/08/15 04:13:17;;;;;;;9.50;6.30;;;19.80;82.70;;;;;;5093843;28;20031;-58
2021/08/15 04:15:43;;;;;;;11.45;6.90;;;19.80;82.30;;;;;;5093809;28;20078;-58
2021/08/15 04:18:08;;;;;;;7.75;6.28;;;19.70;82.70;;;;;;5093751;28;20039;-57
2021/08/15 04:20:34;;;;;;;10.65;6.95;;;19.60;83.00;;;;;;5093376;28;20047;-57
2021/08/15 04:23:00;;;;;;;9.23;6.47;;;19.50;83.40;;;;;;5075393;28;20032;-58
2021/08/15 04:25:25;;;;;;;12.38;7.07;;;19.40;84.00;;;;;;5093259;28;20085;-55
2021/08/15 04:27:51;;;;;;;12.48;6.72;;;19.40;84.50;;;;;;5074863;28;20035;-59
2021/08/15 04:30:16;;;;;;;12.40;7.07;;;19.40;84.70;;;;;;5093738;28;20495;-59
2021/08/15 04:32:42;;;;;;;10.25;7.00;;;19.40;84.80;;;;;;5093388;28;20032;-59
2021/08/15 04:35:08;;;;;;;14.90;7.60;;;19.50;84.30;;;;;;5093338;28;20032;-58
2021/08/15 04:37:34;;;;;;;13.55;8.27;;;19.40;83.80;;;;;;5074983;28;20124;-59
2021/08/15 04:39:59;;;;;;;9.90;6.80;;;19.40;84.00;;;;;;5093509;28;20133;-58
2021/08/15 04:42:25;;;;;;;11.18;6.95;;;19.30;84.40;;;;;;5093837;28;20108;-58
2021/08/15 04:44:50;;;;;;;10.43;6.53;;;19.30;84.30;;;;;;5093583;28;20115;-59
2021/08/15 04:47:19;;;;;;;10.90;7.72;;;19.30;84.70;;;;;;5092354;28;20040;-56
2021/08/15 04:49:44;;;;;;;10.80;7.35;;;19.40;84.90;;;;;;5093116;28;20058;-58
2021/08/15 04:52:10;;;;;;;14.90;7.50;;;19.30;84.60;;;;;;5093586;28;20052;-58
2021/08/15 04:54:35;;;;;;;10.43;7.13;;;19.40;84.40;;;;;;5093118;28;20487;-59
2021/08/15 04:57:01;;;;;;;14.27;6.93;;;19.40;84.50;;;;;;5074477;28;20032;-59
2021/08/15 04:59:27;;;;;;;13.32;7.20;;;19.40;84.80;;;;;;5092851;28;20050;-57
2021/08/15 05:01:53;;;;;;;13.52;8.15;;;19.40;84.90;;;;;;5093262;28;20040;-59
2021/08/15 05:04:19;;;;;;;11.35;7.45;;;19.40;84.70;;;;;;5092561;28;20028;-57
2021/08/15 05:06:45;;;;;;;13.43;7.10;;;19.40;85.00;;;;;;5092575;28;20102;-58
2021/08/15 05:09:11;;;;;;;13.93;7.05;;;19.40;85.10;;;;;;5075293;28;20045;-57
2021/08/15 05:11:38;;;;;;;11.60;7.30;;;19.40;85.20;;;;;;5093541;28;20066;-57
2021/08/15 05:14:05;;;;;;;13.90;7.50;;;19.50;85.00;;;;;;5093036;28;20047;-58
2021/08/15 05:16:30;;;;;;;9.95;7.88;;;19.40;85.20;;;;;;5092421;28;20028;-60
2021/08/15 05:18:56;;;;;;;14.40;7.85;;;19.40;85.30;;;;;;5092539;28;20173;-58
2021/08/15 05:21:21;;;;;;;14.30;7.53;;;19.40;85.20;;;;;;5092571;28;20039;-56
2021/08/15 05:23:47;;;;;;;12.38;8.32;;;19.50;85.10;;;;;;5093427;28;20032;-59
2021/08/15 05:26:13;;;;;;;10.43;7.20;;;19.40;85.40;;;;;;5092436;28;20039;-59
2021/08/15 05:28:38;;;;;;;13.75;7.50;;;19.50;85.00;;;;;;5092350;28;20060;-59
2021/08/15 05:31:04;;;;;;;14.00;7.85;;;19.60;84.80;;;;;;5092398;28;20368;-58
2021/08/15 05:33:29;;;;;;;15.38;9.70;;;19.60;84.30;;;;;;5092269;28;20020;-58
2021/08/15 05:35:55;;;;;;;14.93;9.98;;;19.80;84.30;;;;;;5092185;28;20028;-59
2021/08/15 05:38:21;;;;;;;14.00;7.55;;;19.80;84.00;;;;;;5092452;28;20101;-58
2021/08/15 05:40:46;;;;;;;11.75;8.30;;;19.90;83.30;;;;;;5092725;28;20032;-58
2021/08/15 05:43:12;;;;;;;12.00;8.43;;;20.00;83.60;;;;;;5092682;28;20131;-57
2021/08/15 05:45:38;;;;;;;10.27;7.45;;;20.00;83.90;;;;;;5092239;28;20066;-59
2021/08/15 05:48:05;;;;;;;13.65;7.90;;;20.00;83.90;;;;;;5091906;28;20051;-58
2021/08/15 05:50:31;;;;;;;13.70;9.27;;;20.00;83.70;;;;;;5071435;28;20032;-58
2021/08/15 05:52:56;;;;;;;18.65;8.98;;;20.10;83.20;;;;;;5072368;28;20370;-59
2021/08/15 05:55:22;;;;;;;12.38;7.82;;;20.10;83.10;;;;;;5072061;28;20757;-59
2021/08/15 05:57:48;;;;;;;10.57;7.40;;;20.20;83.00;;;;;;5071970;28;20037;-58
2021/08/15 06:00:14;;;;;;;15.27;7.22;;;20.20;83.20;;;;;;5072136;28;20527;-59
2021/08/15 06:02:41;;;;;;;14.65;8.73;;;20.20;83.20;;;;;;5071875;28;20032;-59
2021/08/15 06:05:08;;;;;;;15.35;7.75;;;20.30;83.00;;;;;;5072428;28;20068;-57
2021/08/15 06:07:33;;;;;;;12.75;7.30;;;20.30;82.90;;;;;;5071872;28;20178;-59
2021/08/15 06:09:59;;;;;;;12.40;8.20;;;20.50;82.50;;;;;;5072357;28;20057;-58
2021/08/15 06:12:24;;;;;;;12.05;7.55;;;20.60;82.10;;;;;;5071518;28;20028;-59
2021/08/15 06:14:50;;;;;;;15.32;8.52;;;20.60;81.90;;;;;;5071763;28;20028;-59
2021/08/15 06:17:16;;;;;;;15.52;9.52;;;20.70;82.00;;;;;;5071747;28;20131;-58
2021/08/15 06:19:42;;;;;;;17.08;10.02;;;20.60;82.10;;;;;;5061532;28;20064;-58
2021/08/15 06:22:09;;;;;;;15.13;8.77;;;20.70;82.10;;;;;;5091911;28;20123;-60
2021/08/15 06:24:35;;;;;;;13.82;9.15;;;20.90;81.70;;;;;;5074088;28;20070;-56
2021/08/15 06:27:02;;;;;;;18.98;8.45;;;20.90;81.80;;;;;;5091681;28;20063;-58
2021/08/15 06:29:28;;;;;;;15.77;8.93;;;21.00;81.80;;;;;;5093957;28;20036;-59
2021/08/15 06:31:54;;;;;;;12.10;8.07;;;20.90;81.70;;;;;;5096330;28;20034;-59
2021/08/15 06:34:20;;;;;;;17.25;9.15;;;20.90;81.80;;;;;;5096419;28;20024;-59
2021/08/15 06:36:45;;;;;;;15.55;8.82;;;20.90;82.20;;;;;;5096199;28;20054;-60
2021/08/15 06:39:11;;;;;;;14.68;8.88;;;20.80;83.30;;;;;;5095875;28;20032;-56
2021/08/15 06:41:37;;;;;;;13.32;8.45;;;20.90;83.10;;;;;;5095850;28;20046;-60
2021/08/15 06:44:02;;;;;;;15.95;8.38;;;21.00;83.00;;;;;;5095573;28;20039;-59
2021/08/15 06:46:28;;;;;;;14.65;8.77;;;21.10;82.80;;;;;;5076760;28;20036;-58
2021/08/15 06:48:54;;;;;;;15.18;10.45;;;21.20;82.60;;;;;;5094920;28;20383;-59
2021/08/15 06:51:19;;;;;;;14.43;8.68;;;21.30;82.50;;;;;;5094785;28;20035;-59
2021/08/15 06:53:45;;;;;;;12.60;9.05;;;21.30;82.80;;;;;;5095292;28;20032;-59
2021/08/15 06:56:11;;;;;;;12.95;8.63;;;21.50;82.40;;;;;;5094776;28;20524;-60
2021/08/15 06:58:38;;;;;;;15.52;8.50;;;21.50;82.40;;;;;;5076775;28;20098;-59
2021/08/15 07:01:04;;;;;;;17.58;8.43;;;21.70;82.00;;;;;;5095752;28;20047;-56
2021/08/15 07:03:30;;;;;;;13.43;8.00;;;21.70;81.90;;;;;;5095335;28;20024;-59
2021/08/15 07:05:56;;;;;;;12.80;8.32;;;21.80;81.70;;;;;;5094759;28;20384;-59
2021/08/15 07:08:22;;;;;;;16.20;8.73;;;21.70;81.20;;;;;;5095731;28;20028;-57
2021/08/15 07:10:48;;;;;;;10.77;7.80;;;21.80;81.10;;;;;;5095275;28;20119;-58
2021/08/15 07:13:16;;;;;;;11.27;7.38;;;21.80;81.30;;;;;;5095250;28;20032;-58
2021/08/15 07:15:42;;;;;;;13.85;8.45;;;21.90;81.40;;;;;;5094599;28;20034;-57
2021/08/15 07:18:08;;;;;;;12.27;8.45;;;21.90;81.20;;;;;;5094808;28;20032;-56
2021/08/15 07:20:33;;;;;;;15.45;8.45;;;22.00;80.50;;;;;;5079320;28;20032;-59
2021/08/15 07:22:59;;;;;;;16.42;8.77;;;22.20;80.40;;;;;;5074799;28;20032;-58
2021/08/15 07:25:28;;;;;;;13.38;8.82;;;22.30;80.30;;;;;;5074224;28;20423;-57
2021/08/15 07:27:54;;;;;;;12.88;8.30;;;22.10;79.80;;;;;;5074620;28;20045;-58
2021/08/15 07:30:20;;;;;;;13.25;9.88;;;22.10;80.10;;;;;;5082005;28;20041;-57
2021/08/15 07:32:49;;;;;;;27.83;9.95;;;22.20;79.70;;;;;;5074399;28;20519;-60
2021/08/15 07:35:15;;;;;;;15.57;9.43;;;22.30;79.10;;;;;;5056612;28;20032;-59
2021/08/15 07:37:41;;;;;;;15.10;9.77;;;22.40;79.00;;;;;;5074370;28;20044;-59
2021/08/15 07:40:07;;;;;;;13.48;8.15;;;22.50;78.90;;;;;;5073251;28;20089;-58
2021/08/15 07:42:32;;;;;;;17.27;9.13;;;22.60;78.40;;;;;;5085459;28;20491;-58
2021/08/15 07:44:58;;;;;;;14.27;8.95;;;22.50;79.50;;;;;;5094890;28;20060;-58
2021/08/15 07:47:24;;;;;;;14.52;8.82;;;22.50;79.10;;;;;;5076540;28;20063;-58
2021/08/15 07:49:49;;;;;;;14.10;8.20;;;22.40;79.20;;;;;;5073544;28;20109;-59
2021/08/15 07:52:15;;;;;;;17.83;9.52;;;22.40;79.20;;;;;;5073870;28;20101;-59
2021/08/15 07:54:40;;;;;;;14.52;9.52;;;22.60;79.50;;;;;;5083946;28;20033;-59
2021/08/15 07:57:06;;;;;;;16.42;9.07;;;22.50;79.30;;;;;;5075498;28;20040;-57
2021/08/15 07:59:32;;;;;;;15.07;9.38;;;22.50;79.00;;;;;;5056033;28;20036;-59
2021/08/15 08:01:57;;;;;;;19.92;9.52;;;22.50;78.80;;;;;;5074649;28;20048;-60
2021/08/15 08:04:23;;;;;;;16.85;9.43;;;22.40;78.80;;;;;;5072937;28;20036;-59
2021/08/15 08:06:50;;;;;;;13.98;8.73;;;22.50;78.60;;;;;;5073227;28;20078;-58
2021/08/15 08:09:16;;;;;;;16.40;10.27;;;22.60;78.70;;;;;;5073636;28;20029;-61
2021/08/15 08:11:41;;;;;;;13.85;8.65;;;22.60;78.30;;;;;;5056114;28;20041;-59
2021/08/15 08:14:07;;;;;;;11.35;8.65;;;22.60;78.30;;;;;;5074122;28;20602;-60
2021/08/15 08:16:33;;;;;;;17.95;8.55;;;22.70;78.00;;;;;;5074295;28;20032;-58
2021/08/15 08:18:59;;;;;;;17.08;8.73;;;22.70;77.90;;;;;;5077963;28;20039;-59
2021/08/15 08:21:25;;;;;;;13.75;8.95;;;22.90;77.70;;;;;;5094593;28;20111;-59
2021/08/15 08:23:51;;;;;;;12.38;8.20;;;23.10;77.30;;;;;;5084623;28;20190;-58
2021/08/15 08:26:16;;;;;;;15.07;8.02;;;23.20;76.30;;;;;;5073599;28;20527;-56
2021/08/15 08:28:42;;;;;;;12.32;8.07;;;23.20;76.20;;;;;;5073810;28;20120;-59
2021/08/15 08:31:07;;;;;;;15.40;9.27;;;23.20;76.50;;;;;;5074467;28;20495;-59
2021/08/15 08:33:33;;;;;;;14.20;8.32;;;23.20;75.00;;;;;;5074225;28;20060;-57
2021/08/15 08:35:59;;;;;;;13.75;8.93;;;23.00;75.20;;;;;;5075981;28;20369;-58
2021/08/15 08:38:25;;;;;;;15.90;9.77;;;23.00;75.30;;;;;;5074459;28;20040;-58
2021/08/15 08:41:01;;;;;;;13.95;8.88;;;22.80;75.80;;;;;;5073461;28;20388;-59
2021/08/15 08:43:27;;;;;;;16.05;9.05;;;22.70;76.50;;;;;;5073053;28;20157;-59
2021/08/15 08:45:54;;;;;;;13.60;8.98;;;22.90;75.80;;;;;;5073301;28;20040;-59
2021/08/15 08:48:20;;;;;;;14.82;9.65;;;23.00;75.70;;;;;;5074683;28;20060;-57
2021/08/15 08:50:49;;;;;;;14.85;8.98;;;23.20;75.00;;;;;;5093988;28;20063;-59
2021/08/15 08:53:15;;;;;;;14.57;9.00;;;23.20;74.80;;;;;;5093358;28;20054;-59
2021/08/15 08:55:40;;;;;;;14.80;8.57;;;23.40;75.00;;;;;;5093294;28;20032;-59
2021/08/15 08:58:07;;;;;;;18.48;9.30;;;23.50;74.70;;;;;;5083093;28;20039;-58
2021/08/15 09:00:33;;;;;;;16.70;9.80;;;23.20;75.30;;;;;;5083072;28;20697;-59
2021/08/15 09:02:58;;;;;;;14.15;8.65;;;23.40;73.90;;;;;;5084494;28;20040;-57
2021/08/15 09:05:32;;;;;;;17.25;8.93;;;23.20;74.40;;;;;;5081055;28;20058;-56
2021/08/15 09:07:58;;;;;;;13.80;8.25;;;23.30;73.70;;;;;;5081384;28;20025;-58
2021/08/15 09:10:38;;;;;;;17.88;9.63;;;23.40;73.70;;;;;;5064772;28;20035;-60
2021/08/15 09:13:10;;;;;;;12.13;8.13;;;23.50;73.00;;;;;;5082324;28;20024;-59
2021/08/15 09:15:37;;;;;;;16.10;7.88;;;23.70;73.10;;;;;;5084553;28;20036;-58
2021/08/15 09:18:03;;;;;;;14.32;7.97;;;23.90;73.90;;;;;;5081431;28;20641;-58
2021/08/15 09:20:44;;;;;;;15.35;8.25;;;23.90;71.40;;;;;;5082065;28;20032;-59
2021/08/15 09:23:36;;;;;;;10.13;7.25;;;23.90;71.30;;;;;;5082103;28;20040;-60
2021/08/15 09:26:11;;;;;;;12.68;7.53;;;23.80;72.40;;;;;;5073395;28;20040;-57
2021/08/15 09:28:38;;;;;;;10.75;7.47;;;23.90;70.60;;;;;;5071884;28;20093;-60
2021/08/15 09:31:24;;;;;;;11.88;7.30;;;23.90;71.30;;;;;;5072312;28;20085;-63
2021/08/15 09:33:55;;;;;;;12.93;7.07;;;23.80;71.50;;;;;;5073645;28;20037;-58
2021/08/15 09:36:28;;;;;;;11.85;7.13;;;23.90;70.60;;;;;;5073714;28;20048;-58
2021/08/15 09:39:03;;;;;;;14.85;7.68;;;23.90;70.40;;;;;;5054924;28;20055;-62
2021/08/15 09:41:32;;;;;;;12.10;6.78;;;23.90;70.80;;;;;;5072701;28;20032;-58
2021/08/15 09:44:18;;;;;;;12.15;7.07;;;23.90;71.60;;;;;;5074205;28;20040;-60
2021/08/15 09:47:08;;;;;;;16.25;7.50;;;24.00;70.90;;;;;;5082541;28;20483;-58
2021/08/15 09:49:34;;;;;;;12.88;7.43;;;24.10;71.80;;;;;;5084430;28;20120;-60
2021/08/15 09:52:01;;;;;;;11.13;7.35;;;24.40;71.20;;;;;;5075378;28;20051;-59
2021/08/15 09:54:26;;;;;;;14.40;7.18;;;24.60;70.20;;;;;;5072343;28;20036;-60
2021/08/15 09:56:54;;;;;;;13.40;6.68;;;24.50;69.60;;;;;;5071568;28;20088;-62
2021/08/15 09:59:22;;;;;;;13.10;6.97;;;24.30;69.50;;;;;;5076346;28;20093;-59
2021/08/15 10:01:55;;;;;;;13.82;10.57;;;24.30;70.10;;;;;;5073677;28;20032;-60
2021/08/15 10:04:25;;;;;;;10.80;6.78;;;24.60;69.80;;;;;;5070809;28;20399;-60
2021/08/15 10:06:53;;;;;;;11.63;7.32;;;24.60;70.20;;;;;;5056536;28;20042;-59
2021/08/15 10:09:20;;;;;;;13.13;6.97;;;24.70;70.50;;;;;;5081387;28;20372;-59
2021/08/15 10:11:49;;;;;;;11.13;6.60;;;24.80;70.40;;;;;;5082648;28;20438;-60
2021/08/15 10:14:16;;;;;;;11.55;7.25;;;24.90;70.00;;;;;;5081759;28;20108;-62
2021/08/15 10:17:02;;;;;;;9.40;6.90;;;25.20;69.60;;;;;;5062874;28;20085;-60
2021/08/15 10:19:43;;;;;;;12.77;6.97;;;25.30;67.90;;;;;;5082325;28;20023;-61
2021/08/15 10:22:09;;;;;;;9.95;7.35;;;25.10;68.40;;;;;;5062325;28;20021;-59
2021/08/15 10:24:48;;;;;;;15.35;7.72;;;25.10;69.20;;;;;;5067265;28;20032;-61
2021/08/15 10:27:39;;;;;;;9.77;6.75;;;24.90;68.60;;;;;;5065625;28;20040;-60
2021/08/15 10:30:16;;;;;;;8.73;6.65;;;25.20;68.20;;;;;;5082400;28;20023;-59
2021/08/15 10:32:54;;;;;;;12.45;6.90;;;25.30;67.20;;;;;;5064531;28;20150;-58
2021/08/15 10:35:24;;;;;;;10.13;6.32;;;25.60;67.10;;;;;;5086624;28;20036;-60
2021/08/15 10:37:56;;;;;;;8.38;6.35;;;25.50;67.30;;;;;;5091685;28;20404;-59
2021/08/15 10:40:45;;;;;;;10.25;6.00;;;25.50;67.00;;;;;;5091761;28;20035;-60
2021/08/15 10:43:35;;;;;;;11.57;6.60;;;25.20;65.20;;;;;;5092157;28;20024;-58
2021/08/15 10:46:22;;;;;;;8.63;6.47;;;25.40;64.70;;;;;;5076538;28;20680;-63
2021/08/15 10:48:58;;;;;;;9.63;6.28;;;25.30;65.30;;;;;;5073426;28;20043;-59
2021/08/15 10:52:22;;;;;;;12.63;7.15;;;25.30;64.80;;;;;;5091588;28;20032;-57
2021/08/15 10:55:01;;;;;;;9.80;6.50;;;25.50;64.50;;;;;;4989727;28;20081;-58
2021/08/15 10:57:46;;;;;;;10.13;6.68;;;25.30;65.10;;;;;;4974048;28;20048;-59
2021/08/15 11:00:30;;;;;;;9.80;6.30;;;25.40;65.60;;;;;;5073749;28;20044;-59
2021/08/15 11:02:59;;;;;;;10.48;6.38;;;25.30;65.90;;;;;;5091553;28;20035;-59
2021/08/15 11:05:39;;;;;;;11.70;5.78;;;25.40;65.10;;;;;;5091992;28;20028;-68
2021/08/15 11:08:33;;;;;;;11.02;6.07;;;25.40;64.70;;;;;;5092870;28;20039;-56
2021/08/15 11:11:10;;;;;;;10.00;5.57;;;25.70;64.00;;;;;;5092314;28;20051;-58
2021/08/15 11:13:37;;;;;;;9.15;6.13;;;25.80;62.90;;;;;;5092332;28;20828;-59
2021/08/15 11:16:24;;;;;;;9.60;6.53;;;25.80;63.20;;;;;;5076678;28;20024;-55
2021/08/15 11:19:08;;;;;;;22.42;6.50;;;25.80;62.90;;;;;;5095819;28;20561;-59
2021/08/15 11:22:19;;;;;;;9.50;7.10;;;25.90;62.90;;;;;;5094373;28;20039;-57
2021/08/15 11:24:44;;;;;;;7.85;5.43;;;25.80;62.00;;;;;;5081755;28;20041;-59
2021/08/15 11:27:11;;;;;;;9.35;6.80;;;25.70;62.90;;;;;;5082378;28;20442;-59
2021/08/15 11:29:38;;;;;;;8.23;7.32;;;25.80;62.30;;;;;;5086658;28;20396;-54
2021/08/15 11:32:05;;;;;;;10.30;6.90;;;25.80;62.40;;;;;;5083160;28;20082;-57
2021/08/15 11:34:30;;;;;;;6.88;5.85;;;25.90;63.20;;;;;;5082373;28;20028;-57
2021/08/15 11:36:57;;;;;;;8.63;5.97;;;25.90;64.10;;;;;;5084391;28;20127;-60
2021/08/15 11:43:16;;;;;;;9.95;6.00;;;26.00;61.70;;;;;;5066570;28;20066;-59
2021/08/15 11:45:56;;;;;;;10.70;6.35;;;26.00;62.80;;;;;;5083664;28;20032;-59
2021/08/15 11:48:26;;;;;;;8.75;5.85;;;26.40;62.30;;;;;;5084797;28;20028;-59
2021/08/15 11:50:55;;;;;;;8.52;6.22;;;26.60;62.30;;;;;;5084396;28;20031;-60
2021/08/15 11:53:27;;;;;;;9.52;6.28;;;26.70;61.60;;;;;;5085413;28;20028;-60
2021/08/15 11:55:54;;;;;;;6.18;5.40;;;26.60;59.70;;;;;;5084123;28;20020;-58
2021/08/15 11:58:20;;;;;;;8.75;6.07;;;26.30;60.60;;;;;;5082428;28;20032;-57
2021/08/15 12:00:47;;;;;;;7.95;6.25;;;26.60;60.50;;;;;;5085127;28;20047;-58
2021/08/15 12:03:22;;;;;;;7.25;5.57;;;26.60;61.10;;;;;;5086214;28;20055;-59
2021/08/15 12:05:50;;;;;;;9.02;6.15;;;26.60;60.70;;;;;;5094613;28;20032;-65
2021/08/15 12:08:20;;;;;;;9.90;6.38;;;26.80;60.40;;;;;;5094204;28;20475;-65
2021/08/15 12:10:49;;;;;;;9.02;5.78;;;27.00;59.50;;;;;;5094350;28;20508;-64
2021/08/15 12:13:20;;;;;;;9.23;5.53;;;27.10;59.00;;;;;;5076135;28;20073;-63
2021/08/15 12:16:07;;;;;;;7.32;5.40;;;27.20;59.40;;;;;;5094043;28;20060;-65
2021/08/15 12:18:37;;;;;;;8.60;6.13;;;27.00;60.10;;;;;;5094188;28;20042;-64
2021/08/15 12:21:28;;;;;;;9.43;6.20;;;27.10;59.70;;;;;;5074876;28;20446;-64
2021/08/15 12:23:58;;;;;;;8.73;5.55;;;27.20;58.90;;;;;;5073675;28;20037;-64
2021/08/15 12:26:25;;;;;;;10.07;5.53;;;27.10;58.50;;;;;;5054845;28;20033;-63
2021/08/15 12:28:56;;;;;;;9.40;6.32;;;27.20;58.80;;;;;;5073692;28;20040;-63
2021/08/15 12:31:28;;;;;;;8.23;5.43;;;27.20;59.00;;;;;;5055811;28;20038;-64
2021/08/15 12:34:17;;;;;;;7.38;5.30;;;27.00;59.10;;;;;;5056160;28;20442;-63
2021/08/15 12:36:53;;;;;;;7.63;5.22;;;27.10;58.50;;;;;;5074415;28;20454;-63
2021/08/15 12:39:29;;;;;;;6.97;5.00;;;27.20;58.40;;;;;;5056478;28;20063;-64
2021/08/15 12:42:06;;;;;;;8.70;5.60;;;27.30;58.50;;;;;;5073746;28;20084;-63
2021/08/15 12:44:47;;;;;;;7.18;5.18;;;27.30;59.00;;;;;;5073558;28;20512;-63
2021/08/15 12:47:14;;;;;;;7.78;5.80;;;27.30;58.10;;;;;;5072800;28;20070;-63
2021/08/15 12:49:47;;;;;;;5.65;4.78;;;27.30;59.00;;;;;;5083809;28;20032;-63